createdAt,value
2018-04-18T00:00:32.777Z,0
2018-04-18T00:01:32.821Z,0
2018-04-18T00:02:32.725Z,0
2018-04-18T00:03:32.448Z,0
2018-04-18T00:04:32.681Z,0
2018-04-18T00:05:32.665Z,0
2018-04-18T00:06:32.642Z,0
2018-04-18T00:07:32.616Z,0
2018-04-18T00:08:32.602Z,0
2018-04-18T00:09:32.640Z,0
2018-04-18T00:10:32.544Z,0
2018-04-18T00:11:32.538Z,0
2018-04-18T00:12:32.252Z,0
2018-04-18T00:13:32.586Z,0
2018-04-18T00:14:32.460Z,0
2018-04-18T00:15:32.441Z,0
2018-04-18T00:16:32.167Z,0
2018-04-18T00:17:32.393Z,0
2018-04-18T00:18:32.130Z,0
2018-04-18T00:19:32.360Z,0
2018-04-18T00:20:32.323Z,0
2018-04-18T00:21:32.307Z,0
2018-04-18T00:22:32.039Z,0
2018-04-18T00:23:32.260Z,0
2018-04-18T00:24:32.360Z,0
2018-04-18T00:25:32.215Z,0
2018-04-18T00:26:31.693Z,0
2018-04-18T00:27:31.917Z,0
2018-04-18T00:28:32.157Z,0
2018-04-18T00:29:32.125Z,0
2018-04-18T00:30:32.153Z,0
2018-04-18T00:31:31.871Z,0
2018-04-18T00:32:32.062Z,0
2018-04-18T00:33:32.037Z,0
2018-04-18T00:34:32.019Z,0
2018-04-18T00:35:31.749Z,0
2018-04-18T00:36:31.974Z,0
2018-04-18T00:37:31.957Z,0
2018-04-18T00:38:31.939Z,0
2018-04-18T00:39:31.409Z,0
2018-04-18T00:40:31.893Z,0
2018-04-18T00:41:31.871Z,0
2018-04-18T00:42:31.840Z,0
2018-04-18T00:43:31.820Z,0
2018-04-18T00:44:31.299Z,0
2018-04-18T00:45:31.777Z,0
2018-04-18T00:46:31.512Z,0
2018-04-18T00:47:31.231Z,0
2018-04-18T00:48:31.711Z,0
2018-04-18T00:49:31.433Z,0
2018-04-18T00:50:31.665Z,0
2018-04-18T00:51:31.645Z,0
2018-04-18T00:52:31.157Z,0
2018-04-18T00:53:31.596Z,0
2018-04-18T00:54:31.327Z,0
2018-04-18T00:55:31.557Z,0
2018-04-18T00:56:31.528Z,0
2018-04-18T00:57:31.513Z,0
2018-04-18T00:58:31.484Z,0
2018-04-18T00:59:31.215Z,0
2018-04-18T01:00:31.444Z,0
2018-04-18T01:01:31.417Z,0
2018-04-18T01:02:31.400Z,0
2018-04-18T01:03:31.369Z,0
2018-04-18T01:04:31.096Z,0
2018-04-18T01:05:31.324Z,0
2018-04-18T01:06:31.297Z,0
2018-04-18T01:07:31.283Z,0
2018-04-18T01:08:31.256Z,0
2018-04-18T01:09:31.242Z,0
2018-04-18T01:10:31.033Z,0
2018-04-18T01:11:31.191Z,0
2018-04-18T01:12:31.169Z,0
2018-04-18T01:13:31.147Z,0
2018-04-18T01:14:30.874Z,0
2018-04-18T01:15:31.092Z,0
2018-04-18T01:16:30.576Z,0
2018-04-18T01:17:31.058Z,0
2018-04-18T01:18:30.784Z,0
2018-04-18T01:19:31.017Z,0
2018-04-18T01:20:30.995Z,0
2018-04-18T01:21:30.980Z,0
2018-04-18T01:22:30.689Z,0
2018-04-18T01:23:30.923Z,0
2018-04-18T01:24:30.929Z,0
2018-04-18T01:25:30.880Z,0
2018-04-18T01:26:30.847Z,0
2018-04-18T01:27:30.835Z,0
2018-04-18T01:28:30.807Z,0
2018-04-18T01:29:30.541Z,0
2018-04-18T01:30:30.759Z,0
2018-04-18T01:31:30.790Z,0
2018-04-18T01:32:30.763Z,0
2018-04-18T01:33:30.696Z,0
2018-04-18T01:34:30.683Z,0
2018-04-18T01:35:30.647Z,0
2018-04-18T01:36:30.620Z,0
2018-04-18T01:37:30.615Z,0
2018-04-18T01:38:30.478Z,0
2018-04-18T01:39:30.311Z,0
2018-04-18T01:40:30.527Z,0
2018-04-18T01:41:30.512Z,0
2018-04-18T01:42:30.493Z,0
2018-04-18T01:43:30.218Z,0
2018-04-18T01:44:30.207Z,0
2018-04-18T01:45:30.430Z,0
2018-04-18T01:46:30.401Z,0
2018-04-18T01:47:30.375Z,0
2018-04-18T01:48:30.363Z,0
2018-04-18T01:49:30.343Z,0
2018-04-18T01:50:30.064Z,0
2018-04-18T01:51:30.289Z,0
2018-04-18T01:52:30.263Z,0
2018-04-18T01:53:30.243Z,0
2018-04-18T01:54:29.972Z,0
2018-04-18T01:55:29.706Z,0
2018-04-18T01:56:29.678Z,0
2018-04-18T01:57:30.151Z,0
2018-04-18T01:58:29.884Z,0
2018-04-18T01:59:30.170Z,0
2018-04-18T02:00:30.088Z,0
2018-04-18T02:01:30.065Z,0
2018-04-18T02:02:29.788Z,0
2018-04-18T02:03:29.770Z,0
2018-04-18T02:04:29.746Z,0
2018-04-18T02:05:30.024Z,0
2018-04-18T02:06:29.702Z,0
2018-04-18T02:07:29.944Z,0
2018-04-18T02:08:29.905Z,0
2018-04-18T02:09:29.886Z,0
2018-04-18T02:10:29.620Z,0
2018-04-18T02:11:29.841Z,0
2018-04-18T02:12:29.563Z,0
2018-04-18T02:13:29.807Z,0
2018-04-18T02:14:29.779Z,0
2018-04-18T02:15:29.747Z,0
2018-04-18T02:16:31.171Z,0
2018-04-18T02:17:29.692Z,0
2018-04-18T02:18:29.673Z,0
2018-04-18T02:19:29.664Z,0
2018-04-18T02:20:29.646Z,0
2018-04-18T02:21:29.611Z,0
2018-04-18T02:22:29.585Z,0
2018-04-18T02:23:29.570Z,0
2018-04-18T02:24:29.599Z,0
2018-04-18T02:25:29.524Z,0
2018-04-18T02:26:29.506Z,0
2018-04-18T02:27:29.472Z,0
2018-04-18T02:28:29.444Z,0
2018-04-18T02:29:29.194Z,0
2018-04-18T02:30:29.410Z,0
2018-04-18T02:31:29.137Z,0
2018-04-18T02:32:29.366Z,0
2018-04-18T02:33:29.340Z,0
2018-04-18T02:34:29.328Z,0
2018-04-18T02:35:29.045Z,0
2018-04-18T02:36:29.264Z,0
2018-04-18T02:37:29.251Z,0
2018-04-18T02:38:28.974Z,0
2018-04-18T02:39:28.955Z,0
2018-04-18T02:40:29.182Z,0
2018-04-18T02:41:29.215Z,0
2018-04-18T02:42:29.135Z,0
2018-04-18T02:43:29.130Z,0
2018-04-18T02:44:29.113Z,0
2018-04-18T02:45:29.080Z,0
2018-04-18T02:46:29.051Z,0
2018-04-18T02:47:28.770Z,0
2018-04-18T02:48:28.993Z,0
2018-04-18T02:49:29.003Z,0
2018-04-18T02:50:28.955Z,0
2018-04-18T02:51:28.947Z,0
2018-04-18T02:52:28.677Z,0
2018-04-18T02:53:28.884Z,0
2018-04-18T02:54:28.618Z,0
2018-04-18T02:55:28.596Z,0
2018-04-18T02:56:28.843Z,0
2018-04-18T02:57:28.798Z,0
2018-04-18T02:58:28.764Z,0
2018-04-18T02:59:28.505Z,0
2018-04-18T03:00:28.481Z,0
2018-04-18T03:01:28.724Z,0
2018-04-18T03:02:28.695Z,0
2018-04-18T03:03:28.656Z,0
2018-04-18T03:04:28.607Z,0
2018-04-18T03:05:28.625Z,0
2018-04-18T03:06:28.594Z,0
2018-04-18T03:07:28.567Z,0
2018-04-18T03:08:28.292Z,0
2018-04-18T03:09:28.523Z,0
2018-04-18T03:10:28.513Z,0
2018-04-18T03:11:28.484Z,0
2018-04-18T03:12:28.443Z,0
2018-04-18T03:13:28.422Z,0
2018-04-18T03:14:28.154Z,0
2018-04-18T03:15:28.374Z,0
2018-04-18T03:16:28.360Z,0
2018-04-18T03:17:28.446Z,0
2018-04-18T03:18:28.315Z,0
2018-04-18T03:19:28.295Z,0
2018-04-18T03:20:28.264Z,0
2018-04-18T03:21:28.242Z,0
2018-04-18T03:22:28.214Z,0
2018-04-18T03:23:28.186Z,0
2018-04-18T03:24:28.166Z,0
2018-04-18T03:25:28.149Z,0
2018-04-18T03:26:27.880Z,0
2018-04-18T03:27:28.102Z,0
2018-04-18T03:28:28.078Z,0
2018-04-18T03:29:28.081Z,0
2018-04-18T03:30:27.808Z,0
2018-04-18T03:31:28.016Z,0
2018-04-18T03:32:27.990Z,0
2018-04-18T03:33:27.973Z,0
2018-04-18T03:34:27.693Z,0
2018-04-18T03:35:27.916Z,0
2018-04-18T03:36:27.902Z,0
2018-04-18T03:37:27.915Z,0
2018-04-18T03:38:27.855Z,0
2018-04-18T03:39:27.322Z,0
2018-04-18T03:40:27.303Z,0
2018-04-18T03:41:27.774Z,0
2018-04-18T03:42:27.794Z,0
2018-04-18T03:43:27.729Z,0
2018-04-18T03:44:27.761Z,0
2018-04-18T03:45:27.688Z,0
2018-04-18T03:46:27.663Z,0
2018-04-18T03:47:27.399Z,0
2018-04-18T03:48:27.622Z,0
2018-04-18T03:49:27.601Z,0
2018-04-18T03:50:27.464Z,0
2018-04-18T03:51:27.540Z,0
2018-04-18T03:52:27.029Z,0
2018-04-18T03:53:27.494Z,0
2018-04-18T03:54:27.526Z,0
2018-04-18T03:55:27.454Z,0
2018-04-18T03:56:27.179Z,0
2018-04-18T03:57:27.403Z,0
2018-04-18T03:58:27.140Z,0
2018-04-18T03:59:26.861Z,0
2018-04-18T04:00:27.092Z,0
2018-04-18T04:01:27.309Z,0
2018-04-18T04:02:27.287Z,0
2018-04-18T04:03:27.262Z,0
2018-04-18T04:04:27.257Z,0
2018-04-18T04:05:27.326Z,0
2018-04-18T04:06:27.207Z,0
2018-04-18T04:07:27.169Z,0
2018-04-18T04:08:27.154Z,0
2018-04-18T04:09:27.137Z,0
2018-04-18T04:10:27.237Z,0
2018-04-18T04:11:27.089Z,0
2018-04-18T04:12:27.056Z,0
2018-04-18T04:13:27.027Z,0
2018-04-18T04:14:26.763Z,0
2018-04-18T04:15:26.738Z,0
2018-04-18T04:16:26.750Z,5
2018-04-18T04:17:26.937Z,5
2018-04-18T04:18:26.912Z,5
2018-04-18T04:19:26.897Z,5
2018-04-18T04:20:26.867Z,5
2018-04-18T04:21:26.841Z,5
2018-04-18T04:22:26.817Z,10
2018-04-18T04:23:26.546Z,10
2018-04-18T04:24:26.529Z,10
2018-04-18T04:25:26.506Z,10
2018-04-18T04:26:26.724Z,15
2018-04-18T04:27:26.461Z,15
2018-04-18T04:28:26.683Z,15
2018-04-18T04:29:26.663Z,20
2018-04-18T04:30:26.393Z,20
2018-04-18T04:31:26.613Z,20
2018-04-18T04:32:26.590Z,25
2018-04-18T04:33:26.318Z,25
2018-04-18T04:34:26.296Z,25
2018-04-18T04:35:26.270Z,30
2018-04-18T04:36:26.499Z,30
2018-04-18T04:37:26.219Z,35
2018-04-18T04:38:25.949Z,35
2018-04-18T04:39:26.174Z,40
2018-04-18T04:40:26.399Z,40
2018-04-18T04:41:25.901Z,45
2018-04-18T04:42:26.356Z,45
2018-04-18T04:43:26.090Z,50
2018-04-18T04:44:25.820Z,50
2018-04-18T04:45:26.284Z,55
2018-04-18T04:46:26.265Z,55
2018-04-18T04:47:25.748Z,60
2018-04-18T04:48:26.222Z,65
2018-04-18T04:49:25.946Z,65
2018-04-18T04:50:26.167Z,70
2018-04-18T04:51:26.149Z,70
2018-04-18T04:52:25.875Z,75
2018-04-18T04:53:25.853Z,80
2018-04-18T04:54:26.081Z,80
2018-04-18T04:55:25.823Z,85
2018-04-18T04:56:26.134Z,85
2018-04-18T04:57:25.509Z,90
2018-04-18T04:58:25.983Z,95
2018-04-18T04:59:25.962Z,95
2018-04-18T05:00:25.693Z,100
2018-04-18T05:01:25.913Z,105
2018-04-18T05:02:25.891Z,105
2018-04-18T05:03:25.874Z,110
2018-04-18T05:04:25.856Z,110
2018-04-18T05:05:25.836Z,115
2018-04-18T05:06:25.306Z,115
2018-04-18T05:07:25.777Z,120
2018-04-18T05:08:25.507Z,120
2018-04-18T05:09:25.738Z,125
2018-04-18T05:10:25.914Z,125
2018-04-18T05:11:25.700Z,130
2018-04-18T05:12:25.673Z,135
2018-04-18T05:13:25.640Z,135
2018-04-18T05:14:25.615Z,140
2018-04-18T05:15:25.623Z,140
2018-04-18T05:16:25.573Z,145
2018-04-18T05:17:25.552Z,150
2018-04-18T05:18:25.316Z,150
2018-04-18T05:19:25.520Z,155
2018-04-18T05:20:25.492Z,160
2018-04-18T05:21:25.514Z,160
2018-04-18T05:22:25.436Z,165
2018-04-18T05:23:25.163Z,170
2018-04-18T05:24:25.141Z,170
2018-04-18T05:25:25.139Z,175
2018-04-18T05:26:25.187Z,175
2018-04-18T05:27:25.319Z,180
2018-04-18T05:28:25.300Z,185
2018-04-18T05:29:25.028Z,185
2018-04-18T05:30:25.000Z,190
2018-04-18T05:31:25.224Z,190
2018-04-18T05:32:24.959Z,195
2018-04-18T05:33:25.197Z,195
2018-04-18T05:34:26.116Z,200
2018-04-18T05:35:26.256Z,200
2018-04-18T05:36:26.672Z,205
2018-04-18T05:37:27.324Z,210
2018-04-18T05:38:24.968Z,215
2018-04-18T05:39:25.051Z,215
2018-04-18T05:40:24.781Z,215
2018-04-18T05:41:24.759Z,220
2018-04-18T05:42:24.976Z,220
2018-04-18T05:43:24.970Z,225
2018-04-18T05:44:24.948Z,225
2018-04-18T05:45:24.801Z,225
2018-04-18T05:46:24.898Z,230
2018-04-18T05:47:24.880Z,235
2018-04-18T05:48:24.597Z,235
2018-04-18T05:49:24.580Z,240
2018-04-18T05:50:25.131Z,240
2018-04-18T05:51:24.830Z,245
2018-04-18T05:52:24.761Z,245
2018-04-18T05:53:24.733Z,250
2018-04-18T05:54:24.719Z,250
2018-04-18T05:55:24.904Z,255
2018-04-18T05:56:24.684Z,255
2018-04-18T05:57:24.643Z,260
2018-04-18T05:58:23.887Z,260
2018-04-18T05:59:24.359Z,265
2018-04-18T06:00:23.843Z,265
2018-04-18T06:01:24.319Z,270
2018-04-18T06:02:24.543Z,270
2018-04-18T06:03:24.271Z,270
2018-04-18T06:04:24.004Z,270
2018-04-18T06:05:24.225Z,270
2018-04-18T06:06:24.667Z,275
2018-04-18T06:07:24.438Z,275
2018-04-18T06:08:24.411Z,280
2018-04-18T06:09:24.391Z,280
2018-04-18T06:10:24.371Z,280
2018-04-18T06:11:24.510Z,285
2018-04-18T06:12:24.345Z,285
2018-04-18T06:13:24.060Z,285
2018-04-18T06:14:24.036Z,290
2018-04-18T06:15:24.012Z,310
2018-04-18T06:16:24.244Z,440
2018-04-18T06:17:23.992Z,605
2018-04-18T06:18:24.206Z,690
2018-04-18T06:19:24.457Z,695
2018-04-18T06:20:23.918Z,705
2018-04-18T06:21:24.138Z,715
2018-04-18T06:22:24.119Z,725
2018-04-18T06:23:23.855Z,730
2018-04-18T06:24:24.089Z,740
2018-04-18T06:25:24.065Z,740
2018-04-18T06:26:24.062Z,760
2018-04-18T06:27:24.262Z,790
2018-04-18T06:28:24.022Z,785
2018-04-18T06:29:23.993Z,795
2018-04-18T06:30:23.726Z,805
2018-04-18T06:31:23.949Z,810
2018-04-18T06:32:23.679Z,815
2018-04-18T06:33:23.661Z,825
2018-04-18T06:34:23.883Z,835
2018-04-18T06:35:23.623Z,845
2018-04-18T06:36:23.601Z,855
2018-04-18T06:37:23.912Z,870
2018-04-18T06:38:23.564Z,880
2018-04-18T06:39:23.804Z,885
2018-04-18T06:40:23.535Z,890
2018-04-18T06:41:23.265Z,905
2018-04-18T06:42:23.749Z,915
2018-04-18T06:43:23.528Z,730
2018-04-18T06:44:23.713Z,465
2018-04-18T06:45:23.701Z,340
2018-04-18T06:46:23.676Z,340
2018-04-18T06:47:23.674Z,340
2018-04-18T06:48:23.408Z,345
2018-04-18T06:49:23.638Z,350
2018-04-18T06:50:23.123Z,345
2018-04-18T06:51:23.542Z,345
2018-04-18T06:52:23.083Z,350
2018-04-18T06:53:23.565Z,350
2018-04-18T06:54:23.300Z,360
2018-04-18T06:55:23.050Z,550
2018-04-18T06:56:23.020Z,850
2018-04-18T06:57:23.499Z,1045
2018-04-18T06:58:23.482Z,1035
2018-04-18T06:59:23.223Z,1040
2018-04-18T07:00:22.951Z,1065
2018-04-18T07:01:22.933Z,1065
2018-04-18T07:02:23.412Z,1100
2018-04-18T07:03:22.970Z,1115
2018-04-18T07:04:23.382Z,1135
2018-04-18T07:05:22.872Z,1155
2018-04-18T07:06:23.354Z,1180
2018-04-18T07:07:23.338Z,1170
2018-04-18T07:08:23.322Z,1130
2018-04-18T07:09:23.057Z,1150
2018-04-18T07:10:23.044Z,1160
2018-04-18T07:11:23.380Z,1170
2018-04-18T07:12:23.268Z,1105
2018-04-18T07:13:23.740Z,845
2018-04-18T07:14:23.236Z,545
2018-04-18T07:15:23.215Z,395
2018-04-18T07:16:22.973Z,405
2018-04-18T07:17:22.946Z,430
2018-04-18T07:18:22.934Z,525
2018-04-18T07:19:23.170Z,820
2018-04-18T07:20:23.147Z,1130
2018-04-18T07:21:23.168Z,1260
2018-04-18T07:22:23.129Z,1185
2018-04-18T07:23:23.110Z,835
2018-04-18T07:24:23.098Z,850
2018-04-18T07:25:22.849Z,1255
2018-04-18T07:26:22.838Z,1315
2018-04-18T07:27:22.555Z,1340
2018-04-18T07:28:23.040Z,1300
2018-04-18T07:29:23.116Z,1305
2018-04-18T07:30:22.525Z,1260
2018-04-18T07:31:22.749Z,855
2018-04-18T07:32:22.998Z,695
2018-04-18T07:33:23.076Z,935
2018-04-18T07:34:23.135Z,975
2018-04-18T07:35:22.951Z,1215
2018-04-18T07:36:22.768Z,1290
2018-04-18T07:37:23.172Z,1250
2018-04-18T07:38:23.810Z,1185
2018-04-18T07:39:22.930Z,905
2018-04-18T07:40:22.875Z,830
2018-04-18T07:41:23.094Z,1015
2018-04-18T07:42:23.204Z,990
2018-04-18T07:43:24.657Z,855
2018-04-18T07:44:22.382Z,725
2018-04-18T07:45:22.837Z,770
2018-04-18T07:46:22.323Z,765
2018-04-18T07:47:22.812Z,670
2018-04-18T07:48:22.804Z,710
2018-04-18T07:49:22.295Z,860
2018-04-18T07:50:23.046Z,1050
2018-04-18T07:51:23.167Z,1175
2018-04-18T07:52:22.400Z,1175
2018-04-18T07:53:22.250Z,1180
2018-04-18T07:54:22.738Z,925
2018-04-18T07:55:22.233Z,880
2018-04-18T07:56:22.727Z,1195
2018-04-18T07:57:22.701Z,1445
2018-04-18T07:58:22.397Z,1325
2018-04-18T07:59:22.686Z,880
2018-04-18T08:00:22.691Z,725
2018-04-18T08:01:22.421Z,1115
2018-04-18T08:02:22.409Z,1415
2018-04-18T08:03:22.152Z,1330
2018-04-18T08:04:22.635Z,1175
2018-04-18T08:05:22.627Z,1005
2018-04-18T08:06:22.372Z,825
2018-04-18T08:07:22.599Z,620
2018-04-18T08:08:22.342Z,495
2018-04-18T08:09:22.584Z,455
2018-04-18T08:10:22.579Z,445
2018-04-18T08:11:22.322Z,440
2018-04-18T08:12:22.302Z,435
2018-04-18T08:13:22.293Z,435
2018-04-18T08:14:22.485Z,435
2018-04-18T08:15:22.930Z,435
2018-04-18T08:16:22.492Z,435
2018-04-18T08:17:22.493Z,435
2018-04-18T08:18:22.225Z,435
2018-04-18T08:19:21.973Z,435
2018-04-18T08:20:23.543Z,435
2018-04-18T08:21:22.249Z,440
2018-04-18T08:22:22.420Z,440
2018-04-18T08:23:22.165Z,440
2018-04-18T08:24:22.397Z,445
2018-04-18T08:25:21.882Z,445
2018-04-18T08:26:22.123Z,450
2018-04-18T08:27:22.349Z,450
2018-04-18T08:28:22.341Z,455
2018-04-18T08:29:22.328Z,460
2018-04-18T08:30:22.314Z,470
2018-04-18T08:31:22.302Z,480
2018-04-18T08:32:21.795Z,495
2018-04-18T08:33:22.295Z,610
2018-04-18T08:34:22.270Z,1035
2018-04-18T08:35:22.239Z,1400
2018-04-18T08:36:22.232Z,1545
2018-04-18T08:37:23.280Z,1560
2018-04-18T08:38:21.703Z,1595
2018-04-18T08:39:22.188Z,1590
2018-04-18T08:40:22.173Z,1625
2018-04-18T08:41:21.670Z,1605
2018-04-18T08:42:21.658Z,1520
2018-04-18T08:43:21.887Z,1435
2018-04-18T08:44:21.627Z,1295
2018-04-18T08:45:21.604Z,1170
2018-04-18T08:46:21.843Z,1035
2018-04-18T08:47:22.131Z,885
2018-04-18T08:48:22.088Z,755
2018-04-18T08:49:21.562Z,650
2018-04-18T08:50:21.800Z,580
2018-04-18T08:51:21.786Z,555
2018-04-18T08:52:21.770Z,535
2018-04-18T08:53:21.770Z,520
2018-04-18T08:54:21.743Z,510
2018-04-18T08:55:21.980Z,500
2018-04-18T08:56:21.967Z,495
2018-04-18T08:57:21.956Z,485
2018-04-18T08:58:21.945Z,480
2018-04-18T08:59:21.941Z,475
2018-04-18T09:00:21.660Z,475
2018-04-18T09:01:21.917Z,470
2018-04-18T09:02:21.450Z,475
2018-04-18T09:03:21.637Z,475
2018-04-18T09:04:21.367Z,470
2018-04-18T09:05:21.857Z,465
2018-04-18T09:06:21.840Z,465
2018-04-18T09:07:21.572Z,470
2018-04-18T09:08:21.428Z,470
2018-04-18T09:09:21.791Z,470
2018-04-18T09:10:21.527Z,470
2018-04-18T09:11:21.766Z,470
2018-04-18T09:12:21.256Z,470
2018-04-18T09:13:21.487Z,475
2018-04-18T09:14:21.473Z,475
2018-04-18T09:15:21.227Z,475
2018-04-18T09:16:21.697Z,485
2018-04-18T09:17:21.430Z,485
2018-04-18T09:18:21.677Z,490
2018-04-18T09:19:21.201Z,485
2018-04-18T09:20:21.500Z,485
2018-04-18T09:21:21.382Z,490
2018-04-18T09:22:21.613Z,490
2018-04-18T09:23:21.363Z,490
2018-04-18T09:24:21.600Z,490
2018-04-18T09:25:21.876Z,495
2018-04-18T09:26:21.307Z,495
2018-04-18T09:27:21.049Z,495
2018-04-18T09:28:21.274Z,495
2018-04-18T09:29:21.022Z,505
2018-04-18T09:30:21.506Z,505
2018-04-18T09:31:21.482Z,505
2018-04-18T09:32:21.468Z,505
2018-04-18T09:33:21.457Z,505
2018-04-18T09:34:20.937Z,510
2018-04-18T09:35:21.414Z,510
2018-04-18T09:36:21.417Z,510
2018-04-18T09:37:21.687Z,505
2018-04-18T09:38:20.884Z,510
2018-04-18T09:39:21.378Z,510
2018-04-18T09:40:21.110Z,510
2018-04-18T09:41:20.716Z,510
2018-04-18T09:42:21.354Z,510
2018-04-18T09:43:21.602Z,510
2018-04-18T09:44:21.067Z,510
2018-04-18T09:45:21.279Z,515
2018-04-18T09:46:20.861Z,515
2018-04-18T09:47:21.032Z,515
2018-04-18T09:48:21.250Z,515
2018-04-18T09:49:20.991Z,520
2018-04-18T09:50:21.218Z,525
2018-04-18T09:51:20.957Z,525
2018-04-18T09:52:21.187Z,530
2018-04-18T09:53:21.175Z,535
2018-04-18T09:54:20.911Z,540
2018-04-18T09:55:21.145Z,540
2018-04-18T09:56:20.635Z,545
2018-04-18T09:57:21.126Z,545
2018-04-18T09:58:21.062Z,545
2018-04-18T09:59:21.086Z,545
2018-04-18T10:00:20.828Z,545
2018-04-18T10:01:21.067Z,545
2018-04-18T10:02:20.795Z,545
2018-04-18T10:03:21.154Z,545
2018-04-18T10:04:20.761Z,545
2018-04-18T10:05:20.502Z,550
2018-04-18T10:06:20.739Z,545
2018-04-18T10:07:20.986Z,545
2018-04-18T10:08:20.707Z,540
2018-04-18T10:09:20.950Z,540
2018-04-18T10:10:20.567Z,540
2018-04-18T10:11:20.919Z,540
2018-04-18T10:12:20.902Z,545
2018-04-18T10:13:20.893Z,545
2018-04-18T10:14:20.888Z,545
2018-04-18T10:15:20.862Z,545
2018-04-18T10:16:20.735Z,545
2018-04-18T10:17:20.837Z,540
2018-04-18T10:18:20.821Z,540
2018-04-18T10:19:20.316Z,545
2018-04-18T10:20:20.297Z,550
2018-04-18T10:21:20.540Z,550
2018-04-18T10:22:20.770Z,550
2018-04-18T10:23:20.257Z,555
2018-04-18T10:24:20.761Z,555
2018-04-18T10:25:20.736Z,555
2018-04-18T10:26:20.719Z,560
2018-04-18T10:27:20.733Z,560
2018-04-18T10:28:20.713Z,560
2018-04-18T10:29:20.189Z,565
2018-04-18T10:30:20.662Z,565
2018-04-18T10:31:20.156Z,565
2018-04-18T10:32:20.391Z,570
2018-04-18T10:33:20.375Z,570
2018-04-18T10:34:20.366Z,570
2018-04-18T10:35:20.348Z,565
2018-04-18T10:36:20.587Z,565
2018-04-18T10:37:20.578Z,565
2018-04-18T10:38:20.357Z,565
2018-04-18T10:39:20.299Z,570
2018-04-18T10:40:20.283Z,565
2018-04-18T10:41:20.524Z,570
2018-04-18T10:42:20.508Z,565
2018-04-18T10:43:20.262Z,565
2018-04-18T10:44:20.233Z,570
2018-04-18T10:45:20.220Z,575
2018-04-18T10:46:20.475Z,580
2018-04-18T10:47:20.440Z,580
2018-04-18T10:48:20.432Z,580
2018-04-18T10:49:20.416Z,585
2018-04-18T10:50:20.406Z,580
2018-04-18T10:51:20.393Z,585
2018-04-18T10:52:20.131Z,590
2018-04-18T10:53:20.375Z,590
2018-04-18T10:54:20.104Z,595
2018-04-18T10:55:19.597Z,595
2018-04-18T10:56:20.092Z,600
2018-04-18T10:57:19.815Z,605
2018-04-18T10:58:20.074Z,610
2018-04-18T10:59:19.793Z,620
2018-04-18T11:00:20.029Z,625
2018-04-18T11:01:20.830Z,625
2018-04-18T11:02:20.252Z,620
2018-04-18T11:03:20.247Z,625
2018-04-18T11:04:19.978Z,625
2018-04-18T11:05:20.216Z,620
2018-04-18T11:06:20.217Z,625
2018-04-18T11:07:20.196Z,620
2018-04-18T11:08:19.446Z,625
2018-04-18T11:09:20.173Z,620
2018-04-18T11:10:20.162Z,615
2018-04-18T11:11:19.897Z,615
2018-04-18T11:12:20.135Z,615
2018-04-18T11:13:20.376Z,615
2018-04-18T11:14:19.366Z,610
2018-04-18T11:15:20.193Z,610
2018-04-18T11:16:20.090Z,610
2018-04-18T11:17:20.073Z,610
2018-04-18T11:18:19.825Z,610
2018-04-18T11:19:19.551Z,615
2018-04-18T11:20:20.041Z,620
2018-04-18T11:21:20.024Z,615
2018-04-18T11:22:19.762Z,615
2018-04-18T11:23:19.509Z,615
2018-04-18T11:24:19.776Z,620
2018-04-18T11:25:19.481Z,620
2018-04-18T11:26:19.469Z,615
2018-04-18T11:27:19.464Z,615
2018-04-18T11:28:19.943Z,605
2018-04-18T11:29:19.940Z,605
2018-04-18T11:30:19.684Z,600
2018-04-18T11:31:19.905Z,600
2018-04-18T11:32:19.653Z,600
2018-04-18T11:33:19.893Z,600
2018-04-18T11:34:20.407Z,605
2018-04-18T11:35:19.967Z,605
2018-04-18T11:36:19.178Z,610
2018-04-18T11:37:19.838Z,625
2018-04-18T11:38:19.824Z,625
2018-04-18T11:39:19.823Z,620
2018-04-18T11:40:19.561Z,620
2018-04-18T11:41:19.800Z,625
2018-04-18T11:42:19.781Z,625
2018-04-18T11:43:19.763Z,625
2018-04-18T11:44:19.532Z,620
2018-04-18T11:45:19.753Z,625
2018-04-18T11:46:19.740Z,625
2018-04-18T11:47:19.729Z,635
2018-04-18T11:48:19.462Z,630
2018-04-18T11:49:19.698Z,630
2018-04-18T11:50:19.695Z,630
2018-04-18T11:51:19.606Z,625
2018-04-18T11:52:19.420Z,625
2018-04-18T11:53:19.665Z,635
2018-04-18T11:54:19.651Z,640
2018-04-18T11:55:19.640Z,640
2018-04-18T11:56:19.375Z,640
2018-04-18T11:57:19.612Z,645
2018-04-18T11:58:19.346Z,645
2018-04-18T11:59:19.584Z,650
2018-04-18T12:00:19.583Z,655
2018-04-18T12:01:19.316Z,660
2018-04-18T12:02:19.752Z,665
2018-04-18T12:03:19.547Z,665
2018-04-18T12:04:19.807Z,665
2018-04-18T12:05:19.265Z,660
2018-04-18T12:06:19.511Z,660
2018-04-18T12:07:19.507Z,660
2018-04-18T12:08:19.234Z,660
2018-04-18T12:09:18.981Z,660
2018-04-18T12:10:19.465Z,665
2018-04-18T12:11:19.254Z,665
2018-04-18T12:12:19.443Z,670
2018-04-18T12:13:19.183Z,670
2018-04-18T12:14:19.171Z,670
2018-04-18T12:15:19.169Z,670
2018-04-18T12:16:19.150Z,675
2018-04-18T12:17:19.402Z,670
2018-04-18T12:18:19.132Z,670
2018-04-18T12:19:19.130Z,670
2018-04-18T12:20:19.131Z,670
2018-04-18T12:21:19.436Z,670
2018-04-18T12:22:19.118Z,675
2018-04-18T12:23:19.328Z,675
2018-04-18T12:24:19.311Z,680
2018-04-18T12:25:18.558Z,680
2018-04-18T12:26:19.084Z,680
2018-04-18T12:27:19.028Z,680
2018-04-18T12:28:19.282Z,680
2018-04-18T12:29:19.009Z,680
2018-04-18T12:30:19.251Z,680
2018-04-18T12:31:18.990Z,685
2018-04-18T12:32:19.223Z,675
2018-04-18T12:33:19.231Z,670
2018-04-18T12:34:19.207Z,675
2018-04-18T12:35:18.944Z,665
2018-04-18T12:36:19.188Z,665
2018-04-18T12:37:18.930Z,665
2018-04-18T12:38:18.679Z,670
2018-04-18T12:39:18.910Z,675
2018-04-18T12:40:18.431Z,680
2018-04-18T12:41:18.878Z,680
2018-04-18T12:42:18.626Z,680
2018-04-18T12:43:19.186Z,680
2018-04-18T12:44:19.114Z,680
2018-04-18T12:45:19.133Z,680
2018-04-18T12:46:19.256Z,680
2018-04-18T12:47:19.068Z,690
2018-04-18T12:48:19.083Z,685
2018-04-18T12:49:19.053Z,685
2018-04-18T12:50:19.052Z,685
2018-04-18T12:51:19.037Z,685
2018-04-18T12:52:18.779Z,690
2018-04-18T12:53:18.521Z,685
2018-04-18T12:54:19.002Z,685
2018-04-18T12:55:18.938Z,685
2018-04-18T12:56:18.984Z,685
2018-04-18T12:57:18.728Z,685
2018-04-18T12:58:18.714Z,685
2018-04-18T12:59:18.961Z,690
2018-04-18T13:00:18.944Z,690
2018-04-18T13:01:18.182Z,695
2018-04-18T13:02:18.751Z,690
2018-04-18T13:03:18.913Z,690
2018-04-18T13:04:18.650Z,690
2018-04-18T13:05:18.907Z,685
2018-04-18T13:06:18.638Z,685
2018-04-18T13:07:18.873Z,695
2018-04-18T13:08:18.622Z,690
2018-04-18T13:09:18.866Z,690
2018-04-18T13:10:18.597Z,695
2018-04-18T13:11:18.654Z,695
2018-04-18T13:12:20.920Z,700
2018-04-18T13:13:18.563Z,690
2018-04-18T13:14:18.308Z,685
2018-04-18T13:15:18.549Z,680
2018-04-18T13:16:18.535Z,675
2018-04-18T13:17:18.527Z,675
2018-04-18T13:18:18.849Z,670
2018-04-18T13:19:18.756Z,665
2018-04-18T13:20:18.404Z,660
2018-04-18T13:21:18.735Z,675
2018-04-18T13:22:18.733Z,670
2018-04-18T13:23:18.474Z,670
2018-04-18T13:24:18.710Z,665
2018-04-18T13:25:18.664Z,665
2018-04-18T13:26:18.202Z,665
2018-04-18T13:27:18.683Z,665
2018-04-18T13:28:18.679Z,665
2018-04-18T13:29:18.167Z,660
2018-04-18T13:30:18.661Z,655
2018-04-18T13:31:18.643Z,655
2018-04-18T13:32:18.143Z,665
2018-04-18T13:33:17.881Z,655
2018-04-18T13:34:18.613Z,650
2018-04-18T13:35:18.607Z,645
2018-04-18T13:36:18.620Z,655
2018-04-18T13:37:18.345Z,645
2018-04-18T13:38:18.578Z,645
2018-04-18T13:39:18.318Z,640
2018-04-18T13:40:18.316Z,640
2018-04-18T13:41:18.546Z,640
2018-04-18T13:42:18.575Z,640
2018-04-18T13:43:18.535Z,635
2018-04-18T13:44:18.526Z,630
2018-04-18T13:45:18.519Z,630
2018-04-18T13:46:18.260Z,630
2018-04-18T13:47:17.996Z,625
2018-04-18T13:48:18.239Z,625
2018-04-18T13:49:18.611Z,625
2018-04-18T13:50:18.485Z,620
2018-04-18T13:51:18.211Z,615
2018-04-18T13:52:18.447Z,615
2018-04-18T13:53:18.189Z,615
2018-04-18T13:54:18.181Z,615
2018-04-18T13:55:17.928Z,615
2018-04-18T13:56:18.408Z,615
2018-04-18T13:57:18.408Z,610
2018-04-18T13:58:18.145Z,610
2018-04-18T13:59:18.138Z,610
2018-04-18T14:00:18.373Z,610
2018-04-18T14:01:18.364Z,615
2018-04-18T14:02:18.558Z,620
2018-04-18T14:03:18.339Z,625